Time;durP1;ratioP1;P1;durP2;ratioP2;P2;SDS_P1;SDS_P2;PMS_P1;PMS_P2;Temp;Humidity;BMP_temperature;BMP_pressure;BME280_temperature;BME280_humidity;BME280_pressure;Samples;Min_cycle;Max_cycle;Signal;HPM_P1;HPM_P2
2022/01/05 00:02:09;;;;;;;2.50;1.60;;;5.60;99.90;;;;;;5065502;28;20457;-71
2022/01/05 00:04:36;;;;;;;3.40;1.80;;;5.60;99.90;;;;;;5065347;28;21026;-70
2022/01/05 00:07:04;;;;;;;2.83;1.80;;;5.70;99.90;;;;;;5065596;28;20458;-70
2022/01/05 00:09:31;;;;;;;3.00;1.80;;;5.70;99.90;;;;;;5066300;28;20459;-71
2022/01/05 00:11:58;;;;;;;2.10;1.50;;;5.60;99.90;;;;;;5065824;28;20448;-69
2022/01/05 00:14:25;;;;;;;2.63;1.57;;;5.60;99.90;;;;;;5065693;28;20458;-69
2022/01/05 00:16:53;;;;;;;3.10;1.77;;;5.70;99.90;;;;;;5065226;28;21274;-72
2022/01/05 00:19:20;;;;;;;2.53;1.50;;;5.70;99.90;;;;;;5064600;28;20475;-70
2022/01/05 00:21:48;;;;;;;3.67;1.50;;;5.70;99.90;;;;;;5065317;28;20439;-71
2022/01/05 00:24:15;;;;;;;2.20;1.27;;;5.70;99.90;;;;;;5061457;28;20827;-70
2022/01/05 00:26:42;;;;;;;2.13;1.33;;;5.70;99.90;;;;;;5065519;28;20474;-70
2022/01/05 00:29:08;;;;;;;2.33;1.47;;;5.70;99.90;;;;;;5063862;28;20555;-69
2022/01/05 00:31:35;;;;;;;3.37;1.67;;;5.70;99.90;;;;;;5065652;28;20439;-69
2022/01/05 00:34:04;;;;;;;2.50;1.23;;;5.70;99.90;;;;;;5064408;28;20443;-69
2022/01/05 00:36:30;;;;;;;2.73;1.57;;;5.80;99.90;;;;;;5065403;28;20453;-69
2022/01/05 00:38:57;;;;;;;2.47;1.30;;;5.80;99.90;;;;;;5066176;28;20475;-69
2022/01/05 00:41:24;;;;;;;2.30;1.40;;;5.70;99.90;;;;;;5060221;28;20458;-70
2022/01/05 00:43:51;;;;;;;2.83;1.40;;;5.70;99.90;;;;;;5059934;28;21086;-72
2022/01/05 00:46:18;;;;;;;2.00;1.00;;;5.70;99.90;;;;;;5064153;28;20452;-69
2022/01/05 00:48:45;;;;;;;1.90;1.10;;;5.70;99.90;;;;;;5064332;28;20558;-69
2022/01/05 00:51:15;;;;;;;1.90;0.80;;;5.70;99.90;;;;;;5065679;28;20450;-69
2022/01/05 00:53:42;;;;;;;1.70;0.73;;;5.70;99.90;;;;;;5065009;28;20448;-68
2022/01/05 00:56:09;;;;;;;2.97;0.97;;;5.70;99.90;;;;;;5064411;28;20889;-71
2022/01/05 00:58:36;;;;;;;2.07;0.90;;;5.60;99.90;;;;;;5062674;28;21240;-69
2022/01/05 01:01:03;;;;;;;1.90;0.90;;;5.60;99.90;;;;;;5058006;28;21134;-68
2022/01/05 01:03:30;;;;;;;2.23;1.00;;;5.60;99.90;;;;;;5056002;28;20536;-68
2022/01/05 01:05:59;;;;;;;1.83;0.93;;;5.70;99.90;;;;;;5047647;28;20457;-68
2022/01/05 01:08:28;;;;;;;1.70;0.80;;;5.60;99.90;;;;;;5047702;28;20476;-71
2022/01/05 01:10:55;;;;;;;1.50;0.60;;;5.70;99.90;;;;;;5048540;28;20440;-69
2022/01/05 01:13:22;;;;;;;1.80;0.73;;;5.70;99.90;;;;;;5048090;28;20505;-68
2022/01/05 01:15:50;;;;;;;1.80;0.80;;;5.70;99.90;;;;;;5048280;28;20453;-69
2022/01/05 01:18:18;;;;;;;2.33;0.70;;;5.70;99.90;;;;;;5047889;28;20576;-69
2022/01/05 01:20:45;;;;;;;1.80;0.80;;;5.70;99.90;;;;;;5059749;28;20447;-70
2022/01/05 01:23:12;;;;;;;1.60;0.70;;;5.70;99.90;;;;;;5057970;28;20556;-68
2022/01/05 01:25:40;;;;;;;1.93;0.70;;;5.70;99.90;;;;;;5051980;28;20459;-70
2022/01/05 01:28:07;;;;;;;1.80;0.70;;;5.80;99.90;;;;;;5049577;28;20469;-70
2022/01/05 01:30:34;;;;;;;1.43;0.50;;;5.80;99.90;;;;;;5048058;28;20461;-69
2022/01/05 01:33:02;;;;;;;1.70;0.70;;;5.80;99.90;;;;;;5047956;28;20536;-69
2022/01/05 01:35:29;;;;;;;2.00;0.80;;;5.80;99.90;;;;;;5047776;28;20539;-68
2022/01/05 01:37:56;;;;;;;1.80;0.57;;;5.80;99.90;;;;;;5047712;28;20492;-69
2022/01/05 01:40:24;;;;;;;2.00;0.70;;;5.80;99.90;;;;;;5047476;28;20444;-69
2022/01/05 01:42:52;;;;;;;1.70;0.70;;;5.80;99.90;;;;;;5047870;28;20452;-69
2022/01/05 01:45:21;;;;;;;1.40;0.50;;;5.90;99.90;;;;;;5054607;28;21014;-70
2022/01/05 01:47:47;;;;;;;1.57;0.70;;;5.90;99.90;;;;;;5049014;28;20998;-68
2022/01/05 01:50:15;;;;;;;1.63;0.70;;;5.90;99.90;;;;;;5057023;28;20539;-69
2022/01/05 01:52:42;;;;;;;1.67;0.67;;;5.90;99.90;;;;;;5054776;28;20456;-69
2022/01/05 01:55:11;;;;;;;1.60;0.60;;;5.90;99.90;;;;;;5053525;28;20461;-69
2022/01/05 01:57:40;;;;;;;2.43;0.80;;;5.90;99.90;;;;;;5069669;28;20483;-69
2022/01/05 02:00:10;;;;;;;1.50;0.60;;;5.90;99.90;;;;;;5069737;28;20447;-73
2022/01/05 02:02:38;;;;;;;1.70;0.70;;;5.90;99.90;;;;;;5069383;28;20487;-69
2022/01/05 02:05:05;;;;;;;1.73;0.70;;;6.00;99.90;;;;;;5069154;28;20447;-70
2022/01/05 02:07:32;;;;;;;1.93;0.70;;;6.00;99.90;;;;;;5068853;28;20529;-68
2022/01/05 02:09:59;;;;;;;1.50;0.60;;;6.00;99.90;;;;;;5069453;28;20462;-70
2022/01/05 02:12:27;;;;;;;1.90;0.83;;;6.00;99.90;;;;;;5069140;28;20457;-69
2022/01/05 02:14:54;;;;;;;1.60;0.50;;;6.10;99.90;;;;;;5068725;28;20542;-69
2022/01/05 02:17:23;;;;;;;1.50;0.53;;;6.10;99.90;;;;;;5069075;28;20479;-69
2022/01/05 02:19:50;;;;;;;1.77;0.60;;;6.10;99.90;;;;;;5068064;28;20498;-69
2022/01/05 02:22:18;;;;;;;1.60;0.53;;;6.10;99.90;;;;;;5069097;28;20452;-69
2022/01/05 02:24:46;;;;;;;1.70;0.60;;;6.10;99.90;;;;;;5068661;28;20440;-70
2022/01/05 02:27:13;;;;;;;1.60;0.60;;;6.20;99.90;;;;;;5069030;28;20436;-70
2022/01/05 02:29:40;;;;;;;1.80;0.60;;;6.10;99.90;;;;;;5068661;28;20464;-69
2022/01/05 02:32:08;;;;;;;1.67;0.70;;;6.20;99.90;;;;;;5068987;28;20452;-69
2022/01/05 02:34:35;;;;;;;1.80;0.60;;;6.20;99.90;;;;;;5068447;28;20816;-69
2022/01/05 02:37:01;;;;;;;1.57;0.73;;;6.20;99.90;;;;;;5068853;28;21053;-69
2022/01/05 02:39:30;;;;;;;1.50;0.53;;;6.20;99.90;;;;;;5068626;28;20478;-69
2022/01/05 02:41:57;;;;;;;1.60;0.63;;;6.20;99.90;;;;;;5068318;28;20454;-69
2022/01/05 02:44:23;;;;;;;1.50;0.60;;;6.20;99.90;;;;;;5068654;28;20452;-70
2022/01/05 02:46:50;;;;;;;1.60;0.60;;;6.30;99.90;;;;;;5068164;28;21031;-70
2022/01/05 02:49:17;;;;;;;2.43;0.70;;;6.30;99.90;;;;;;5068624;28;20463;-68
2022/01/05 02:51:44;;;;;;;1.50;0.50;;;6.30;99.90;;;;;;5068461;28;21092;-68
2022/01/05 02:54:11;;;;;;;1.50;0.63;;;6.30;99.90;;;;;;5068610;28;20439;-69
2022/01/05 02:56:39;;;;;;;1.70;0.70;;;6.30;99.90;;;;;;5067907;28;20846;-69
2022/01/05 02:59:06;;;;;;;1.80;0.60;;;6.30;99.90;;;;;;5068045;28;20483;-69
2022/01/05 03:01:33;;;;;;;2.20;0.73;;;6.30;99.90;;;;;;5067985;28;20836;-69
2022/01/05 03:04:00;;;;;;;1.70;0.70;;;6.30;99.90;;;;;;5068181;28;20447;-69
2022/01/05 03:06:27;;;;;;;1.60;0.70;;;6.30;99.90;;;;;;5068092;28;21040;-69
2022/01/05 03:08:54;;;;;;;1.60;0.60;;;6.30;99.90;;;;;;5068298;28;20463;-69
2022/01/05 03:11:21;;;;;;;1.50;0.60;;;6.30;99.90;;;;;;5068550;28;20454;-68
2022/01/05 03:13:50;;;;;;;4.17;0.80;;;6.40;99.90;;;;;;5068085;28;20983;-69
2022/01/05 03:16:16;;;;;;;2.43;0.90;;;6.40;99.90;;;;;;5067612;28;21038;-69
2022/01/05 03:18:43;;;;;;;1.50;0.60;;;6.40;99.90;;;;;;5067854;28;20521;-68
2022/01/05 03:21:10;;;;;;;1.87;0.70;;;6.40;99.90;;;;;;5067985;28;20543;-69
2022/01/05 03:23:37;;;;;;;1.60;0.60;;;6.40;99.90;;;;;;5068496;28;20562;-69
2022/01/05 03:26:04;;;;;;;2.00;0.80;;;6.30;99.90;;;;;;5067872;28;20463;-70
2022/01/05 03:28:31;;;;;;;1.80;0.73;;;6.30;99.90;;;;;;5068260;28;20455;-69
2022/01/05 03:30:59;;;;;;;1.90;0.80;;;6.30;99.90;;;;;;5068816;28;21032;-69
2022/01/05 03:33:26;;;;;;;1.60;0.60;;;6.30;99.90;;;;;;5072295;28;21038;-67
2022/01/05 03:35:53;;;;;;;3.73;1.00;;;6.30;99.90;;;;;;5072312;28;20483;-70
2022/01/05 03:38:20;;;;;;;2.53;0.90;;;6.40;99.90;;;;;;5073597;28;20489;-69
2022/01/05 03:40:48;;;;;;;1.60;0.80;;;6.40;99.90;;;;;;5077216;28;20518;-69
2022/01/05 03:43:15;;;;;;;3.53;0.60;;;6.30;99.90;;;;;;5077689;28;20435;-69
2022/01/05 03:45:43;;;;;;;1.47;0.53;;;6.30;99.90;;;;;;5076837;28;20443;-70
2022/01/05 03:48:13;;;;;;;1.80;0.60;;;6.30;99.90;;;;;;5077077;28;20459;-69
2022/01/05 03:50:40;;;;;;;2.00;0.70;;;6.30;99.90;;;;;;5075135;28;20526;-69
2022/01/05 03:53:08;;;;;;;1.90;0.60;;;6.30;99.90;;;;;;5072772;28;20826;-71
2022/01/05 03:55:36;;;;;;;2.03;0.60;;;6.30;99.90;;;;;;5071805;28;20423;-70
2022/01/05 03:58:03;;;;;;;2.13;0.73;;;6.30;99.90;;;;;;5071542;28;20487;-69
2022/01/05 04:00:31;;;;;;;1.63;0.70;;;6.30;99.90;;;;;;5071863;28;20442;-69
2022/01/05 04:02:58;;;;;;;2.03;0.67;;;6.30;99.90;;;;;;5071483;28;20459;-69
2022/01/05 04:05:28;;;;;;;1.40;0.53;;;6.30;99.90;;;;;;5071346;28;20538;-70
2022/01/05 04:07:54;;;;;;;1.47;0.60;;;6.30;99.90;;;;;;5071192;28;20662;-70
2022/01/05 04:10:21;;;;;;;1.73;0.60;;;6.30;99.90;;;;;;5071440;28;20531;-70
2022/01/05 04:12:48;;;;;;;1.50;0.50;;;6.30;99.90;;;;;;5071683;28;20448;-71
2022/01/05 04:15:15;;;;;;;1.50;0.57;;;6.30;99.90;;;;;;5071350;28;20537;-69
2022/01/05 04:17:42;;;;;;;1.80;0.60;;;6.30;99.90;;;;;;5071388;28;20475;-69
2022/01/05 04:20:11;;;;;;;2.77;0.60;;;6.30;99.90;;;;;;5071893;28;20458;-69
2022/01/05 04:22:40;;;;;;;1.50;0.53;;;6.20;99.90;;;;;;5071390;28;20457;-71
2022/01/05 04:25:07;;;;;;;2.00;0.60;;;6.20;99.90;;;;;;5071025;28;20463;-69
2022/01/05 04:27:34;;;;;;;1.60;0.57;;;6.20;99.90;;;;;;5071492;28;20586;-71
2022/01/05 04:30:01;;;;;;;1.40;0.50;;;6.10;99.90;;;;;;5071874;28;20843;-71
2022/01/05 04:32:28;;;;;;;1.60;0.50;;;6.10;99.90;;;;;;5071212;28;20443;-70
2022/01/05 04:34:54;;;;;;;1.70;0.70;;;6.00;99.90;;;;;;5070763;28;21006;-70
2022/01/05 04:37:22;;;;;;;1.40;0.50;;;6.00;99.90;;;;;;5071085;28;20448;-70
2022/01/05 04:39:50;;;;;;;1.50;0.60;;;5.90;99.90;;;;;;5070750;28;20541;-70
2022/01/05 04:42:17;;;;;;;1.60;0.60;;;5.90;99.90;;;;;;5070754;28;20443;-70
2022/01/05 04:44:44;;;;;;;3.53;0.60;;;5.90;99.90;;;;;;5070241;28;20457;-70
2022/01/05 04:47:12;;;;;;;1.60;0.60;;;5.90;99.90;;;;;;5071198;28;20457;-70
2022/01/05 04:49:39;;;;;;;1.60;0.70;;;5.90;99.90;;;;;;5071116;28;20474;-71
2022/01/05 04:52:06;;;;;;;1.60;0.60;;;5.80;99.90;;;;;;5071438;28;20973;-70
2022/01/05 04:54:33;;;;;;;2.07;0.63;;;5.80;99.90;;;;;;5071115;28;20459;-70
2022/01/05 04:57:02;;;;;;;1.60;0.60;;;5.70;99.90;;;;;;5071212;28;20534;-70
2022/01/05 04:59:28;;;;;;;1.70;0.70;;;5.70;99.90;;;;;;5072145;28;20490;-69
2022/01/05 05:01:55;;;;;;;1.70;0.70;;;5.70;99.90;;;;;;5071985;28;21047;-69
2022/01/05 05:04:22;;;;;;;1.80;0.70;;;5.70;99.90;;;;;;5072231;28;20447;-70
2022/01/05 05:06:50;;;;;;;1.60;0.80;;;5.70;99.90;;;;;;5072031;28;20458;-70
2022/01/05 05:09:17;;;;;;;2.20;0.70;;;5.70;99.90;;;;;;5072354;28;20506;-71
2022/01/05 05:11:44;;;;;;;1.73;0.70;;;5.70;99.90;;;;;;5072034;28;20450;-69
2022/01/05 05:14:12;;;;;;;2.70;0.80;;;5.70;99.90;;;;;;5071993;28;20544;-69
2022/01/05 05:16:39;;;;;;;1.70;0.70;;;5.70;99.90;;;;;;5071056;28;20848;-68
2022/01/05 05:19:07;;;;;;;1.77;0.97;;;5.70;99.90;;;;;;5071702;28;20479;-68
2022/01/05 05:21:33;;;;;;;1.70;0.80;;;5.40;99.90;;;;;;5071548;28;20465;-70
2022/01/05 05:24:00;;;;;;;1.80;1.00;;;4.80;99.90;;;;;;5071764;28;20961;-69
2022/01/05 05:26:27;;;;;;;2.20;1.40;;;4.20;99.90;;;;;;5071514;28;20584;-69
2022/01/05 05:28:54;;;;;;;2.07;1.40;;;3.90;99.90;;;;;;5070633;28;20462;-70
2022/01/05 05:31:22;;;;;;;3.17;1.57;;;3.70;99.90;;;;;;5071342;28;20944;-69
2022/01/05 05:33:49;;;;;;;2.20;1.33;;;3.50;99.90;;;;;;5071319;28;20488;-69
2022/01/05 05:36:16;;;;;;;2.00;1.13;;;3.40;99.90;;;;;;5071037;28;20483;-69
2022/01/05 05:38:43;;;;;;;2.50;1.87;;;3.20;99.90;;;;;;5071151;28;20480;-70
2022/01/05 05:41:10;;;;;;;4.30;1.73;;;3.10;99.90;;;;;;5071292;28;20472;-71
2022/01/05 05:43:37;;;;;;;2.70;1.80;;;3.00;99.90;;;;;;5071138;28;20924;-70
2022/01/05 05:46:04;;;;;;;3.00;2.10;;;2.80;99.90;;;;;;5070947;28;20455;-70
2022/01/05 05:48:32;;;;;;;2.73;2.00;;;2.80;99.90;;;;;;5071181;28;20459;-70
2022/01/05 05:50:59;;;;;;;4.40;3.10;;;2.80;99.90;;;;;;5071026;28;20507;-70
2022/01/05 05:53:26;;;;;;;2.77;1.80;;;2.80;99.90;;;;;;5070875;28;20450;-70
2022/01/05 05:55:52;;;;;;;4.83;2.80;;;2.80;99.90;;;;;;5070052;28;20454;-72
2022/01/05 05:58:19;;;;;;;3.50;2.40;;;2.90;99.90;;;;;;5070553;28;20459;-70
2022/01/05 06:00:46;;;;;;;4.67;2.60;;;2.90;99.90;;;;;;5070239;28;20463;-68
2022/01/05 06:03:13;;;;;;;3.60;2.87;;;3.00;99.90;;;;;;5070161;28;20562;-71
2022/01/05 06:05:41;;;;;;;6.17;2.87;;;3.00;99.90;;;;;;5070529;28;20469;-69
2022/01/05 06:08:08;;;;;;;4.87;3.17;;;3.00;99.90;;;;;;5070341;28;20471;-70
2022/01/05 06:10:35;;;;;;;7.23;3.40;;;3.10;99.90;;;;;;5070537;28;20542;-70
2022/01/05 06:13:08;;;;;;;5.27;3.47;;;3.10;99.90;;;;;;5070227;28;20451;-69
2022/01/05 06:15:35;;;;;;;6.17;3.70;;;3.10;99.90;;;;;;5070147;28;20454;-70
2022/01/05 06:18:02;;;;;;;7.67;3.47;;;3.10;99.90;;;;;;5070191;28;21004;-71
2022/01/05 06:20:28;;;;;;;4.63;3.07;;;3.20;99.90;;;;;;5069616;28;21019;-71
2022/01/05 06:22:57;;;;;;;5.37;3.97;;;3.20;99.90;;;;;;5068901;28;20458;-69
2022/01/05 06:25:23;;;;;;;5.70;3.97;;;3.20;99.90;;;;;;5068686;28;20519;-69
2022/01/05 06:27:50;;;;;;;5.30;3.47;;;3.30;99.90;;;;;;5068709;28;20467;-69
2022/01/05 06:30:17;;;;;;;5.50;4.17;;;3.30;99.90;;;;;;5068696;28;20626;-69
2022/01/05 06:32:46;;;;;;;5.40;3.77;;;3.30;99.90;;;;;;5069296;28;20447;-68
2022/01/05 06:35:14;;;;;;;4.83;3.30;;;3.30;99.90;;;;;;5068978;28;20451;-71
2022/01/05 06:37:41;;;;;;;5.33;3.67;;;3.40;99.90;;;;;;5071590;28;20475;-70
2022/01/05 06:40:10;;;;;;;4.30;3.10;;;3.40;99.90;;;;;;5069445;28;20494;-70
2022/01/05 06:42:37;;;;;;;4.37;2.60;;;3.40;99.90;;;;;;5068977;28;20638;-70
2022/01/05 06:45:06;;;;;;;4.63;2.93;;;3.40;99.90;;;;;;5068771;28;20450;-70
2022/01/05 06:47:33;;;;;;;4.10;2.80;;;3.40;99.90;;;;;;5068715;28;20566;-69
2022/01/05 06:49:59;;;;;;;4.87;2.63;;;3.40;99.90;;;;;;5069388;28;20458;-70
2022/01/05 06:52:26;;;;;;;4.07;2.60;;;3.40;99.90;;;;;;5069254;28;20459;-70
2022/01/05 06:54:53;;;;;;;4.70;2.67;;;3.40;99.90;;;;;;5069027;28;20451;-70
2022/01/05 06:57:21;;;;;;;5.43;2.50;;;3.40;99.90;;;;;;5069107;28;20462;-69
2022/01/05 06:59:48;;;;;;;4.37;2.60;;;3.40;99.90;;;;;;5069489;28;20946;-71
2022/01/05 07:02:15;;;;;;;6.00;2.53;;;3.40;99.90;;;;;;5070073;28;20980;-70
2022/01/05 07:04:42;;;;;;;3.50;2.20;;;3.40;99.90;;;;;;5069092;28;20839;-70
2022/01/05 07:07:09;;;;;;;3.90;1.90;;;3.40;99.90;;;;;;5067839;28;20546;-70
2022/01/05 07:09:36;;;;;;;8.13;2.17;;;3.20;99.90;;;;;;5068453;28;20495;-70
2022/01/05 07:12:03;;;;;;;6.90;1.70;;;3.10;99.90;;;;;;5068727;28;20474;-71
2022/01/05 07:14:31;;;;;;;2.70;1.63;;;3.00;99.90;;;;;;5068150;28;20453;-69
2022/01/05 07:16:58;;;;;;;4.33;2.07;;;3.00;99.90;;;;;;5068138;28;20455;-69
2022/01/05 07:19:25;;;;;;;1.90;1.10;;;2.90;99.90;;;;;;5067705;28;20599;-71
2022/01/05 07:21:51;;;;;;;3.40;1.80;;;2.90;99.90;;;;;;5067727;28;20519;-70
2022/01/05 07:24:19;;;;;;;2.47;1.53;;;2.90;99.90;;;;;;5067777;28;20546;-70
2022/01/05 07:26:47;;;;;;;4.83;2.10;;;2.90;99.90;;;;;;5067524;28;20466;-70
2022/01/05 07:29:14;;;;;;;4.43;1.63;;;2.80;99.90;;;;;;5067492;28;20474;-70
2022/01/05 07:31:43;;;;;;;3.60;1.77;;;2.80;99.90;;;;;;5067837;28;20444;-70
2022/01/05 07:34:10;;;;;;;4.03;1.77;;;2.70;99.90;;;;;;5067735;28;20451;-70
2022/01/05 07:36:37;;;;;;;3.03;2.17;;;2.70;99.90;;;;;;5067477;28;20455;-70
2022/01/05 07:39:05;;;;;;;3.20;2.07;;;2.70;99.90;;;;;;5067623;28;20483;-70
2022/01/05 07:41:32;;;;;;;3.20;2.00;;;2.70;99.90;;;;;;5067886;28;20447;-71
2022/01/05 07:43:59;;;;;;;6.10;2.87;;;2.80;99.90;;;;;;5067459;28;20453;-69
2022/01/05 07:46:26;;;;;;;3.33;2.47;;;2.80;99.90;;;;;;5067060;28;20448;-70
2022/01/05 07:48:54;;;;;;;4.33;3.10;;;2.90;99.90;;;;;;5067553;28;20562;-70
2022/01/05 07:51:21;;;;;;;4.77;4.03;;;2.90;99.90;;;;;;5067179;28;20792;-69
2022/01/05 07:53:48;;;;;;;4.27;2.80;;;2.90;99.90;;;;;;5067334;28;20533;-70
2022/01/05 07:56:15;;;;;;;5.47;2.73;;;2.90;99.90;;;;;;5067082;28;20447;-69
2022/01/05 07:58:42;;;;;;;8.30;2.53;;;3.00;99.90;;;;;;5067266;28;21226;-70
2022/01/05 08:01:09;;;;;;;4.17;2.73;;;3.00;99.90;;;;;;5067130;28;20583;-69
2022/01/05 08:03:37;;;;;;;3.93;2.30;;;2.90;99.90;;;;;;5067053;28;20450;-71
2022/01/05 08:06:05;;;;;;;7.17;2.80;;;2.90;99.90;;;;;;5066753;28;20749;-69
2022/01/05 08:08:33;;;;;;;4.90;2.97;;;2.90;99.90;;;;;;5067069;28;20493;-71
2022/01/05 08:11:00;;;;;;;5.90;2.80;;;2.80;99.90;;;;;;5067242;28;20546;-70
2022/01/05 08:13:27;;;;;;;5.80;2.47;;;2.80;99.90;;;;;;5067211;28;20468;-69
2022/01/05 08:15:55;;;;;;;4.20;2.73;;;2.80;99.90;;;;;;5066780;28;20457;-70
2022/01/05 08:18:22;;;;;;;4.73;2.30;;;2.80;99.90;;;;;;5069970;28;21038;-70
2022/01/05 08:20:49;;;;;;;3.97;2.10;;;2.80;99.90;;;;;;5070777;28;20498;-70
2022/01/05 08:23:19;;;;;;;6.53;2.80;;;2.80;99.90;;;;;;5071112;28;20830;-71
2022/01/05 08:25:46;;;;;;;4.73;2.77;;;2.80;99.90;;;;;;5070522;28;20442;-70
2022/01/05 08:28:13;;;;;;;6.67;3.40;;;2.80;99.90;;;;;;5070634;28;20471;-69
2022/01/05 08:30:40;;;;;;;7.93;3.03;;;2.90;99.90;;;;;;5070692;28;20987;-70
2022/01/05 08:33:08;;;;;;;8.00;3.47;;;2.90;99.90;;;;;;5070427;28;20547;-70
2022/01/05 08:35:35;;;;;;;8.90;3.50;;;2.90;99.90;;;;;;5070498;28;20466;-70
2022/01/05 08:38:02;;;;;;;6.63;4.93;;;3.00;99.90;;;;;;5070629;28;20481;-68
2022/01/05 08:40:31;;;;;;;8.03;3.70;;;3.00;99.90;;;;;;5070421;28;20482;-70
2022/01/05 08:42:59;;;;;;;8.23;3.17;;;2.90;99.90;;;;;;5070309;28;20451;-70
2022/01/05 08:45:26;;;;;;;6.20;3.57;;;2.90;99.90;;;;;;5070073;28;20470;-70
2022/01/05 08:47:55;;;;;;;6.93;3.30;;;2.80;99.90;;;;;;5070493;28;20894;-71
2022/01/05 08:50:25;;;;;;;4.90;3.53;;;2.80;99.90;;;;;;5070764;28;20542;-70
2022/01/05 08:52:52;;;;;;;3.73;3.10;;;2.80;99.90;;;;;;5070393;28;20558;-70
2022/01/05 08:55:21;;;;;;;4.70;3.00;;;2.70;99.90;;;;;;5070043;28;20451;-70
2022/01/05 08:57:50;;;;;;;3.63;2.30;;;2.70;99.90;;;;;;5070378;28;20986;-70
2022/01/05 09:00:18;;;;;;;7.13;3.33;;;2.70;99.90;;;;;;5070299;28;21110;-71
2022/01/05 09:02:46;;;;;;;7.27;2.83;;;2.70;99.90;;;;;;5070068;28;20459;-71
2022/01/05 09:05:13;;;;;;;6.63;2.73;;;2.70;99.90;;;;;;5069872;28;20534;-70
2022/01/05 09:07:40;;;;;;;4.07;2.50;;;2.70;99.90;;;;;;5070078;28;20562;-69
2022/01/05 09:10:08;;;;;;;6.03;3.43;;;2.80;99.90;;;;;;5070015;28;21181;-70
2022/01/05 09:12:35;;;;;;;5.77;2.93;;;2.90;99.90;;;;;;5069938;28;20447;-70
2022/01/05 09:15:04;;;;;;;5.37;2.23;;;2.90;99.90;;;;;;5070385;28;20451;-71
2022/01/05 09:17:31;;;;;;;3.90;2.23;;;3.00;99.90;;;;;;5070238;28;20455;-70
2022/01/05 09:19:58;;;;;;;8.93;2.63;;;2.90;99.90;;;;;;5069898;28;20573;-70
2022/01/05 09:22:25;;;;;;;3.77;2.17;;;2.90;99.90;;;;;;5070280;28;20454;-69
2022/01/05 09:24:53;;;;;;;6.93;2.50;;;2.80;99.90;;;;;;5069506;28;20444;-70
2022/01/05 09:27:20;;;;;;;5.30;1.87;;;2.80;99.90;;;;;;5069542;28;20435;-70
2022/01/05 09:29:48;;;;;;;5.50;3.10;;;2.70;99.90;;;;;;5069336;28;20535;-69
2022/01/05 09:32:16;;;;;;;3.40;2.70;;;2.70;99.90;;;;;;5069578;28;20455;-70
2022/01/05 09:34:44;;;;;;;5.20;2.20;;;2.70;99.90;;;;;;5069480;28;20885;-70
2022/01/05 09:37:17;;;;;;;7.03;2.97;;;2.70;99.90;;;;;;5069444;28;20499;-71
2022/01/05 09:42:28;;;;;;;5.80;3.17;;;2.80;99.90;;;;;;5069132;28;20517;-69
2022/01/05 09:44:56;;;;;;;4.37;2.80;;;2.80;99.90;;;;;;5068804;28;20463;-70
2022/01/05 09:47:43;;;;;;;9.13;2.60;;;2.90;99.90;;;;;;5069044;28;20459;-70
2022/01/05 09:50:12;;;;;;;4.70;2.80;;;3.00;99.90;;;;;;5067968;28;20436;-68
2022/01/05 09:52:42;;;;;;;6.00;3.10;;;3.00;99.90;;;;;;5063262;28;20552;-70
2022/01/05 09:55:11;;;;;;;4.07;2.63;;;3.00;99.90;;;;;;5055061;28;20856;-70
2022/01/05 09:57:39;;;;;;;7.63;2.97;;;3.00;99.90;;;;;;5061880;28;20488;-71
2022/01/05 10:00:07;;;;;;;4.93;2.70;;;3.00;99.90;;;;;;5062776;28;20476;-71
2022/01/05 10:02:36;;;;;;;5.63;2.70;;;3.00;99.90;;;;;;5061994;28;20486;-70
2022/01/05 10:05:03;;;;;;;5.20;2.50;;;3.10;99.90;;;;;;5056772;28;20538;-68
2022/01/05 10:07:30;;;;;;;6.40;2.93;;;3.20;99.90;;;;;;5057300;28;20462;-70
2022/01/05 10:09:57;;;;;;;7.07;2.63;;;3.30;99.90;;;;;;5063041;28;20451;-67
2022/01/05 10:12:24;;;;;;;5.90;4.83;;;3.30;99.90;;;;;;5060188;28;20443;-67
2022/01/05 10:14:51;;;;;;;5.37;2.70;;;3.30;99.90;;;;;;5057768;28;20459;-67
2022/01/05 10:17:24;;;;;;;8.83;3.43;;;3.20;99.90;;;;;;5063912;28;20460;-68
2022/01/05 10:19:58;;;;;;;5.93;2.53;;;3.00;99.90;;;;;;5065444;28;20484;-68
2022/01/05 10:22:32;;;;;;;5.63;1.90;;;2.90;99.90;;;;;;5066114;28;20467;-68
2022/01/05 10:25:00;;;;;;;6.47;2.73;;;2.90;99.90;;;;;;5062955;28;20552;-69
2022/01/05 10:27:28;;;;;;;3.73;1.83;;;3.00;99.90;;;;;;5058544;28;20452;-69
2022/01/05 10:29:57;;;;;;;7.23;2.27;;;3.40;99.90;;;;;;5059903;28;20745;-68
2022/01/05 10:32:25;;;;;;;6.73;2.30;;;4.00;99.90;;;;;;5061027;28;20551;-69
2022/01/05 10:35:06;;;;;;;9.30;3.60;;;4.40;99.90;;;;;;5058405;28;20451;-69
2022/01/05 10:37:33;;;;;;;5.43;2.87;;;4.40;99.90;;;;;;5054817;28;20482;-69
2022/01/05 10:40:22;;;;;;;6.40;2.37;;;4.20;99.90;;;;;;5054922;28;21240;-70
2022/01/05 10:42:51;;;;;;;6.23;2.37;;;4.10;99.90;;;;;;5049378;28;20478;-69
2022/01/05 10:45:21;;;;;;;4.73;1.93;;;4.10;99.90;;;;;;5058631;28;20478;-69
2022/01/05 10:48:05;;;;;;;5.07;2.23;;;3.90;99.90;;;;;;5060550;28;20555;-68
2022/01/05 10:50:33;;;;;;;4.70;2.20;;;3.80;99.90;;;;;;5061837;28;20455;-70
2022/01/05 10:53:00;;;;;;;6.83;1.97;;;3.80;99.90;;;;;;5064094;28;20493;-68
2022/01/05 10:55:29;;;;;;;7.10;2.40;;;3.90;99.90;;;;;;5048806;28;20459;-69
2022/01/05 10:57:58;;;;;;;5.17;2.10;;;3.90;99.90;;;;;;5055953;28;20568;-68
2022/01/05 11:00:38;;;;;;;4.83;2.30;;;4.00;99.90;;;;;;5055154;28;20484;-68
2022/01/05 11:03:25;;;;;;;5.80;1.93;;;3.90;99.90;;;;;;5064862;28;20507;-70
2022/01/05 11:06:08;;;;;;;7.20;2.70;;;3.80;99.90;;;;;;5069486;28;20507;-67
2022/01/05 11:08:50;;;;;;;5.50;1.80;;;3.70;99.90;;;;;;5063607;28;20478;-70
2022/01/05 11:11:38;;;;;;;5.67;1.60;;;3.80;99.90;;;;;;5072890;28;20825;-70
2022/01/05 11:14:07;;;;;;;5.93;1.97;;;3.80;99.90;;;;;;5062891;28;20474;-71
2022/01/05 11:16:34;;;;;;;11.03;3.00;;;4.00;99.90;;;;;;5060347;28;20453;-67
2022/01/05 11:19:19;;;;;;;7.33;2.77;;;4.00;99.90;;;;;;5062554;28;20470;-68
2022/01/05 11:22:00;;;;;;;5.83;2.30;;;3.90;99.90;;;;;;5060980;28;20560;-66
2022/01/05 11:24:30;;;;;;;3.83;1.80;;;3.80;99.90;;;;;;5059465;28;20451;-67
2022/01/05 11:26:58;;;;;;;5.77;2.17;;;3.70;99.90;;;;;;5048871;28;21229;-68
2022/01/05 11:29:25;;;;;;;7.00;2.17;;;3.70;99.90;;;;;;5059994;28;20459;-68
2022/01/05 11:31:54;;;;;;;8.87;2.27;;;3.70;99.90;;;;;;5052626;28;20456;-68
2022/01/05 11:34:21;;;;;;;5.40;2.20;;;3.80;99.90;;;;;;5046364;28;20869;-68
2022/01/05 11:36:48;;;;;;;7.37;2.23;;;4.00;99.90;;;;;;5057569;28;20818;-69
2022/01/05 11:39:16;;;;;;;4.87;1.93;;;4.00;99.90;;;;;;5054457;28;20845;-69
2022/01/05 11:41:47;;;;;;;6.27;2.63;;;3.90;99.90;;;;;;5057533;28;20486;-69
2022/01/05 11:44:16;;;;;;;8.03;2.43;;;3.80;99.90;;;;;;5047320;28;20448;-72
2022/01/05 11:46:46;;;;;;;10.43;3.90;;;3.80;99.90;;;;;;5054728;28;20554;-69
2022/01/05 11:49:15;;;;;;;3.27;2.17;;;3.70;99.90;;;;;;5057926;28;20468;-71
2022/01/05 11:51:50;;;;;;;4.83;2.10;;;3.80;99.90;;;;;;5052262;28;20816;-74
2022/01/05 11:54:21;;;;;;;10.30;2.90;;;4.00;99.90;;;;;;5058831;28;20451;-72
2022/01/05 11:56:51;;;;;;;6.40;2.20;;;4.00;99.90;;;;;;5056503;28;20458;-67
2022/01/05 11:59:33;;;;;;;7.07;2.70;;;4.20;99.90;;;;;;5057522;28;20479;-68
2022/01/05 12:02:03;;;;;;;6.97;2.10;;;4.30;99.90;;;;;;5059148;28;20479;-70
2022/01/05 12:04:31;;;;;;;8.10;2.30;;;4.20;99.90;;;;;;5060541;28;20462;-67
2022/01/05 12:07:09;;;;;;;6.87;2.10;;;4.40;99.90;;;;;;5055817;28;20461;-69
2022/01/05 12:09:40;;;;;;;5.50;2.00;;;4.60;99.90;;;;;;5058680;28;20840;-69
2022/01/05 12:12:32;;;;;;;5.63;2.60;;;4.50;99.90;;;;;;5055850;28;20475;-71
2022/01/05 12:15:01;;;;;;;6.10;2.57;;;4.40;99.90;;;;;;5056711;28;20529;-70
2022/01/05 12:17:29;;;;;;;6.97;2.40;;;4.40;99.90;;;;;;5055052;28;20995;-71
2022/01/05 12:20:11;;;;;;;7.60;2.47;;;4.60;99.90;;;;;;5061340;28;20548;-70
2022/01/05 12:22:38;;;;;;;6.67;2.57;;;4.70;99.90;;;;;;5055555;28;20569;-70
2022/01/05 12:25:13;;;;;;;6.30;2.20;;;4.60;99.90;;;;;;5057371;28;20444;-71
2022/01/05 12:27:57;;;;;;;4.10;2.17;;;4.50;99.90;;;;;;5055040;28;20528;-71
2022/01/05 12:30:41;;;;;;;4.30;2.17;;;4.60;99.90;;;;;;5061767;28;20510;-70
2022/01/05 12:33:13;;;;;;;5.93;2.07;;;4.70;99.90;;;;;;5058124;28;20462;-70
2022/01/05 12:35:46;;;;;;;8.10;2.33;;;4.50;99.90;;;;;;5061207;28;20530;-72
2022/01/05 12:38:28;;;;;;;7.03;2.50;;;4.30;99.90;;;;;;5064785;28;20467;-70
2022/01/05 12:40:57;;;;;;;8.10;2.33;;;4.40;99.90;;;;;;5060999;28;20561;-68
2022/01/05 12:43:35;;;;;;;8.77;2.60;;;4.50;99.90;;;;;;5062958;28;20532;-70
2022/01/05 12:46:08;;;;;;;8.00;3.33;;;4.50;99.90;;;;;;5064832;28;20443;-68
2022/01/05 12:49:01;;;;;;;4.63;2.03;;;4.50;99.90;;;;;;5068639;28;20483;-69
2022/01/05 12:52:01;;;;;;;3.87;1.90;;;4.50;99.90;;;;;;5062142;28;20769;-69
2022/01/05 12:54:30;;;;;;;5.10;1.93;;;4.40;99.90;;;;;;5067989;28;20440;-71
2022/01/05 12:57:01;;;;;;;8.53;2.53;;;4.20;99.90;;;;;;5065587;28;20503;-70
2022/01/05 12:59:30;;;;;;;6.73;2.07;;;4.10;99.90;;;;;;5066629;28;21268;-73
2022/01/05 13:02:01;;;;;;;9.93;1.80;;;4.10;99.90;;;;;;5067487;28;20510;-70
2022/01/05 13:04:28;;;;;;;6.33;2.07;;;4.10;99.90;;;;;;5066468;28;20459;-70
2022/01/05 13:06:58;;;;;;;4.60;1.83;;;4.00;99.90;;;;;;5066222;28;20456;-70
2022/01/05 13:09:31;;;;;;;10.43;2.23;;;3.90;99.90;;;;;;5066669;28;20563;-69